createdAt,value
2023-04-13T00:00:27.852Z,97732.45
2023-04-13T00:03:17.762Z,97736.66
2023-04-13T00:05:46.776Z,97738.98
2023-04-13T00:08:17.212Z,97731.80
2023-04-13T00:10:46.211Z,97735.05
2023-04-13T00:13:15.320Z,97734.71
2023-04-13T00:15:43.916Z,97731.58
2023-04-13T00:18:12.414Z,97729.56
2023-04-13T00:20:41.937Z,97730.08
2023-04-13T00:23:10.290Z,97737.67
2023-04-13T00:25:38.227Z,97738.10
2023-04-13T00:28:06.719Z,97731.11
2023-04-13T00:30:34.959Z,97730.83
2023-04-13T00:33:05.997Z,97736.36
2023-04-13T00:35:34.238Z,97729.13
2023-04-13T00:38:05.067Z,97729.61
2023-04-13T00:40:33.258Z,97736.58
2023-04-13T00:43:02.206Z,97731.72
2023-04-13T00:45:30.708Z,97726.16
2023-04-13T00:48:00.164Z,97720.88
2023-04-13T00:50:28.571Z,97723.56
2023-04-13T00:52:58.026Z,97722.98
2023-04-13T00:55:27.851Z,97722.23
2023-04-13T00:57:56.191Z,97721.69
2023-04-13T01:00:25.727Z,97723.28
2023-04-13T01:02:55.907Z,97726.38
2023-04-13T01:05:26.122Z,97723.98
2023-04-13T01:08:18.778Z,97726.23
2023-04-13T01:11:13.267Z,97728.27
2023-04-13T01:13:44.420Z,97733.95
2023-04-13T01:16:19.028Z,97738.72
2023-04-13T01:18:52.475Z,97739.14
2023-04-13T01:21:25.028Z,97735.45
2023-04-13T01:24:02.154Z,97736.30
2023-04-13T01:26:46.645Z,97735.02
2023-04-13T01:29:14.943Z,97733.48
2023-04-13T01:31:44.050Z,97732.70
2023-04-13T01:34:12.199Z,97728.46
2023-04-13T01:36:40.406Z,97722.33
2023-04-13T01:39:10.568Z,97719.48
2023-04-13T01:41:38.729Z,97726.08
2023-04-13T01:44:07.157Z,97729.21
2023-04-13T01:46:35.727Z,97728.13
2023-04-13T01:49:11.023Z,97724.17
2023-04-13T01:52:02.138Z,97724.30
2023-04-13T01:54:33.794Z,97724.89
2023-04-13T01:57:02.314Z,97726.88
2023-04-13T01:59:30.648Z,97726.86
2023-04-13T02:01:59.359Z,97720.35
2023-04-13T02:04:28.202Z,97721.71
2023-04-13T02:06:56.377Z,97722.41
2023-04-13T02:09:31.686Z,97721.65
2023-04-13T02:11:59.731Z,97719.58
2023-04-13T02:14:27.641Z,97719.41
2023-04-13T02:16:55.799Z,97724.20
2023-04-13T02:19:24.760Z,97728.11
2023-04-13T02:21:53.488Z,97727.41
2023-04-13T02:24:21.733Z,97736.02
2023-04-13T02:26:49.724Z,97735.81
2023-04-13T02:29:17.696Z,97734.25
2023-04-13T02:31:46.490Z,97733.95
2023-04-13T02:34:14.836Z,97733.52
2023-04-13T02:36:43.226Z,97739.98
2023-04-13T02:39:11.150Z,97746.69
2023-04-13T02:41:42.013Z,97742.75
2023-04-13T02:44:11.550Z,97743.22
2023-04-13T02:46:47.548Z,97741.69
2023-04-13T02:49:17.314Z,97741.73
2023-04-13T02:51:55.034Z,97741.47
2023-04-13T02:54:30.065Z,97742.00
2023-04-13T02:56:58.543Z,97741.21
2023-04-13T02:59:26.801Z,97742.54
2023-04-13T03:01:58.975Z,97743.21
2023-04-13T03:04:29.244Z,97743.59
2023-04-13T03:06:58.467Z,97738.12
2023-04-13T03:09:26.813Z,97742.07
2023-04-13T03:11:56.778Z,97744.33
2023-04-13T03:14:29.814Z,97740.81
2023-04-13T03:17:05.326Z,97746.55
2023-04-13T03:19:38.405Z,97752.35
2023-04-13T03:22:06.832Z,97757.26
2023-04-13T03:24:37.302Z,97761.04
2023-04-13T03:27:07.646Z,97763.59
2023-04-13T03:29:39.776Z,97765.62
2023-04-13T03:32:08.403Z,97763.85
2023-04-13T03:34:43.798Z,97761.33
2023-04-13T03:37:12.746Z,97760.05
2023-04-13T03:39:41.243Z,97767.20
2023-04-13T03:42:11.619Z,97770.30
2023-04-13T03:44:43.052Z,97773.82
2023-04-13T03:47:11.436Z,97779.92
2023-04-13T03:49:39.375Z,97780.59
2023-04-13T03:52:07.387Z,97783.94
2023-04-13T03:54:40.207Z,97787.06
2023-04-13T03:57:08.391Z,97789.73
2023-04-13T03:59:36.429Z,97793.92
2023-04-13T04:02:04.792Z,97796.66
2023-04-13T04:04:33.757Z,97798.69
2023-04-13T04:07:01.772Z,97804.08
2023-04-13T04:09:29.924Z,97807.02
2023-04-13T04:11:58.041Z,97807.68
2023-04-13T04:14:36.427Z,97808.08
2023-04-13T04:17:14.786Z,97809.84
2023-04-13T04:19:43.109Z,97810.79
2023-04-13T04:22:14.023Z,97811.64
2023-04-13T04:24:42.504Z,97811.80
2023-04-13T04:27:14.353Z,97815.59
2023-04-13T04:29:49.832Z,97818.52
2023-04-13T04:32:24.234Z,97820.40
2023-04-13T04:34:53.273Z,97824.21
2023-04-13T04:37:22.163Z,97824.97
2023-04-13T04:40:01.365Z,97827.52
2023-04-13T04:42:29.299Z,97828.91
2023-04-13T04:44:57.592Z,97827.59
2023-04-13T04:47:30.100Z,97829.58
2023-04-13T04:50:21.112Z,97833.65
2023-04-13T04:52:53.647Z,97828.64
2023-04-13T04:55:23.308Z,97824.38
2023-04-13T04:57:51.630Z,97826.04
2023-04-13T05:00:21.265Z,97828.20
2023-04-13T05:03:01.168Z,97830.58
2023-04-13T05:05:30.769Z,97829.65
2023-04-13T05:08:01.256Z,97837.52
2023-04-13T05:10:30.116Z,97840.35
2023-04-13T05:12:58.965Z,97842.52
2023-04-13T05:15:28.253Z,97845.16
2023-04-13T05:17:56.537Z,97849.09
2023-04-13T05:20:28.067Z,97852.27
2023-04-13T05:23:01.571Z,97853.52
2023-04-13T05:25:29.781Z,97856.67
2023-04-13T05:28:00.995Z,97861.83
2023-04-13T05:30:29.068Z,97861.27
2023-04-13T05:32:57.080Z,97863.28
2023-04-13T05:35:28.011Z,97862.79
2023-04-13T05:37:57.320Z,97864.08
2023-04-13T05:40:26.045Z,97862.06
2023-04-13T05:42:54.448Z,97866.66
2023-04-13T05:45:25.714Z,97868.98
2023-04-13T05:48:02.608Z,97866.04
2023-04-13T05:50:30.971Z,97867.59
2023-04-13T05:52:59.149Z,97869.83
2023-04-13T05:55:29.876Z,97874.81
2023-04-13T05:58:06.062Z,97879.92
2023-04-13T06:00:34.512Z,97882.76
2023-04-13T06:03:04.916Z,97882.80
2023-04-13T06:05:35.551Z,97888.19
2023-04-13T06:08:03.829Z,97886.22
2023-04-13T06:10:31.872Z,97882.16
2023-04-13T06:12:59.875Z,97882.23
2023-04-13T06:15:27.870Z,97883.36
2023-04-13T06:17:55.767Z,97889.30
2023-04-13T06:20:24.409Z,97895.48
2023-04-13T06:22:52.264Z,97903.85
2023-04-13T06:25:21.315Z,97909.69
2023-04-13T06:27:50.138Z,97913.73
2023-04-13T06:30:18.970Z,97914.44
2023-04-13T06:32:47.810Z,97917.99
2023-04-13T06:35:17.699Z,97920.55
2023-04-13T06:37:47.452Z,97917.77
2023-04-13T06:40:21.075Z,97918.06
2023-04-13T06:43:00.968Z,97919.85
2023-04-13T06:45:48.204Z,97914.73
2023-04-13T06:48:21.330Z,97915.58
2023-04-13T06:50:52.304Z,97919.81
2023-04-13T06:53:20.899Z,97929.88
2023-04-13T06:55:48.862Z,97938.98
2023-04-13T06:58:17.295Z,97941.30
2023-04-13T07:00:45.510Z,97943.67
2023-04-13T07:03:13.696Z,97940.94
2023-04-13T07:05:45.058Z,97937.78
2023-04-13T07:08:15.431Z,97934.89
2023-04-13T07:10:44.266Z,97931.70
2023-04-13T07:13:18.410Z,97928.65
2023-04-13T07:15:47.012Z,97936.15
2023-04-13T07:18:15.183Z,97940.33
2023-04-13T07:20:43.176Z,97943.35
2023-04-13T07:23:12.547Z,97947.15
2023-04-13T07:25:41.037Z,97951.52
2023-04-13T07:28:15.685Z,97956.48
2023-04-13T07:30:44.906Z,97960.67
2023-04-13T07:33:13.555Z,97965.39
2023-04-13T07:35:41.614Z,97965.91
2023-04-13T07:38:10.622Z,97965.62
2023-04-13T07:40:38.565Z,97966.93
2023-04-13T07:43:09.406Z,97966.77
2023-04-13T07:45:38.986Z,97968.50
2023-04-13T07:48:08.171Z,97969.47
2023-04-13T07:50:42.082Z,97975.46
2023-04-13T07:53:13.150Z,97979.58
2023-04-13T07:55:41.472Z,97979.98
2023-04-13T07:58:09.614Z,97985.65
2023-04-13T08:00:37.876Z,97986.12
2023-04-13T08:03:07.158Z,97992.95
2023-04-13T08:05:36.837Z,97992.30
2023-04-13T08:08:05.158Z,97987.61
2023-04-13T08:10:33.143Z,97991.96
2023-04-13T08:13:03.314Z,98000.02
2023-04-13T08:15:31.473Z,98005.65
2023-04-13T08:18:00.583Z,98003.08
2023-04-13T08:20:29.750Z,98007.40
2023-04-13T08:22:58.377Z,98007.60
2023-04-13T08:25:26.788Z,98014.03
2023-04-13T08:27:54.890Z,98023.48
2023-04-13T08:30:23.065Z,98026.67
2023-04-13T08:32:58.310Z,98026.00
2023-04-13T08:35:26.631Z,98027.11
2023-04-13T08:37:55.033Z,98026.35
2023-04-13T08:40:23.133Z,98025.70
2023-04-13T08:42:55.060Z,98025.98
2023-04-13T08:45:23.222Z,98030.34
2023-04-13T08:47:51.580Z,98029.58
2023-04-13T08:50:22.677Z,98026.13
2023-04-13T08:52:54.271Z,98022.64
2023-04-13T08:55:22.864Z,98020.39
2023-04-13T08:57:56.764Z,98020.95
2023-04-13T09:00:25.477Z,98024.86
2023-04-13T09:03:05.708Z,98028.34
2023-04-13T09:05:42.037Z,98025.77
2023-04-13T09:08:13.638Z,98032.95
2023-04-13T09:10:42.439Z,98042.02
2023-04-13T09:13:10.633Z,98040.38
2023-04-13T09:15:39.075Z,98046.60
2023-04-13T09:18:23.506Z,98040.45
2023-04-13T09:20:59.974Z,98034.81
2023-04-13T09:23:27.991Z,98035.61
2023-04-13T09:26:06.898Z,98048.16
2023-04-13T09:28:45.701Z,98050.38
2023-04-13T09:31:13.885Z,98051.53
2023-04-13T09:33:49.994Z,98052.33
2023-04-13T09:36:20.785Z,98058.59
2023-04-13T09:38:53.972Z,98064.52
2023-04-13T09:41:40.766Z,98066.52
2023-04-13T09:44:17.956Z,98066.21
2023-04-13T09:47:02.496Z,98063.31
2023-04-13T09:49:38.979Z,98059.61
2023-04-13T09:52:08.328Z,98060.92
2023-04-13T09:54:36.666Z,98064.55
2023-04-13T09:57:05.105Z,98071.85
2023-04-13T09:59:34.035Z,98075.23
2023-04-13T10:02:03.646Z,98074.48
2023-04-13T10:04:31.896Z,98076.05
2023-04-13T10:06:59.816Z,98079.29
2023-04-13T10:09:27.778Z,98077.23
2023-04-13T10:11:56.754Z,98077.44
2023-04-13T10:14:31.438Z,98075.84
2023-04-13T10:17:31.645Z,98076.00
2023-04-13T10:20:07.916Z,98075.70
2023-04-13T10:22:36.270Z,98082.78
2023-04-13T10:25:06.988Z,98082.99
2023-04-13T10:27:36.541Z,98083.27
2023-04-13T10:30:18.228Z,98087.84
2023-04-13T10:32:46.330Z,98080.69
2023-04-13T10:35:15.855Z,98084.18
2023-04-13T10:37:46.122Z,98085.89
2023-04-13T10:40:16.258Z,98086.05
2023-04-13T10:42:52.513Z,98092.52
2023-04-13T10:45:28.487Z,98097.63
2023-04-13T10:47:58.601Z,98101.65
2023-04-13T10:50:29.733Z,98110.06
2023-04-13T10:53:00.595Z,98116.33
2023-04-13T10:55:29.327Z,98116.06
2023-04-13T10:57:59.465Z,98117.40
2023-04-13T11:00:44.637Z,98126.62
2023-04-13T11:03:17.002Z,98125.34
2023-04-13T11:05:47.424Z,98131.78
2023-04-13T11:08:20.847Z,98137.02
2023-04-13T11:10:52.787Z,98138.14
2023-04-13T11:13:21.859Z,98135.89
2023-04-13T11:15:49.885Z,98135.10
2023-04-13T11:18:26.527Z,98142.85
2023-04-13T11:20:54.877Z,98146.40
2023-04-13T11:23:24.363Z,98148.40
2023-04-13T11:25:58.523Z,98144.72
2023-04-13T11:28:36.877Z,98144.67
2023-04-13T11:31:06.342Z,98143.92
2023-04-13T11:33:34.339Z,98139.42
2023-04-13T11:36:02.542Z,98143.54
2023-04-13T11:38:30.565Z,98145.51
2023-04-13T11:43:37.752Z,98151.69
2023-04-13T11:46:06.048Z,98150.37
2023-04-13T11:48:34.381Z,98153.46
2023-04-13T11:51:02.666Z,98152.09
2023-04-13T11:53:32.189Z,98154.64
2023-04-13T11:56:00.733Z,98160.17
2023-04-13T11:58:28.720Z,98162.26
2023-04-13T12:01:02.176Z,98158.80
2023-04-13T12:03:42.514Z,98159.45
2023-04-13T12:06:22.175Z,98157.88
2023-04-13T12:08:57.773Z,98160.23
2023-04-13T12:11:43.935Z,98158.48
2023-04-13T12:19:27.230Z,98163.31
2023-04-13T12:21:57.583Z,98160.72
2023-04-13T12:24:38.271Z,98155.77
2023-04-13T12:29:41.042Z,98164.90
2023-04-13T12:32:17.014Z,98167.09
2023-04-13T12:34:45.261Z,98161.94
2023-04-13T12:37:13.183Z,98163.81
2023-04-13T12:39:42.142Z,98168.08
2023-04-13T12:42:10.057Z,98171.11
2023-04-13T12:44:37.993Z,98170.15
2023-04-13T12:47:06.796Z,98162.65
2023-04-13T12:49:34.658Z,98161.24
2023-04-13T12:52:02.507Z,98163.00
2023-04-13T12:54:30.880Z,98165.61
2023-04-13T12:56:59.784Z,98165.55
2023-04-13T12:59:27.793Z,98166.63
2023-04-13T13:01:56.012Z,98165.87
2023-04-13T13:04:24.002Z,98168.84
2023-04-13T13:06:52.468Z,98167.56
2023-04-13T13:09:20.730Z,98166.46
2023-04-13T13:11:48.765Z,98172.69
2023-04-13T13:14:16.690Z,98175.00
2023-04-13T13:16:44.631Z,98174.68
2023-04-13T13:19:12.497Z,98170.16
2023-04-13T13:21:40.427Z,98169.73
2023-04-13T13:24:08.375Z,98165.21
2023-04-13T13:27:00.081Z,98168.04
2023-04-13T13:29:24.179Z,98174.24
2023-04-13T13:31:52.533Z,98174.97
2023-04-13T13:34:20.590Z,98178.96
2023-04-13T13:36:49.545Z,98179.13
2023-04-13T13:39:18.827Z,98174.13
2023-04-13T13:41:47.003Z,98173.77
2023-04-13T13:44:15.453Z,98170.32
2023-04-13T13:46:43.824Z,98169.80
2023-04-13T13:49:11.982Z,98168.12
2023-04-13T13:51:43.149Z,98167.70
2023-04-13T13:54:12.861Z,98169.78
2023-04-13T13:56:40.721Z,98172.24
2023-04-13T13:59:08.990Z,98173.17
2023-04-13T14:01:37.856Z,98177.33
2023-04-13T14:04:05.930Z,98174.63
2023-04-13T14:06:33.944Z,98175.64
2023-04-13T14:09:02.302Z,98174.01
2023-04-13T14:11:31.891Z,98174.66
2023-04-13T14:14:10.868Z,98174.29
2023-04-13T14:16:39.372Z,98179.27
2023-04-13T14:19:07.383Z,98179.25
2023-04-13T14:21:35.341Z,98178.20
2023-04-13T14:24:03.378Z,98178.54
2023-04-13T14:26:31.289Z,98177.83
2023-04-13T14:28:59.326Z,98178.30
2023-04-13T14:31:27.525Z,98177.65
2023-04-13T14:33:55.887Z,98175.64
2023-04-13T14:36:24.542Z,98178.02
2023-04-13T14:38:52.562Z,98178.90
2023-04-13T14:41:21.143Z,98178.96
2023-04-13T14:43:49.143Z,98181.01
2023-04-13T14:46:17.080Z,98181.80
2023-04-13T14:48:44.969Z,98181.34
2023-04-13T14:51:17.193Z,98182.06
2023-04-13T14:53:45.155Z,98183.51
2023-04-13T14:56:13.033Z,98187.37
2023-04-13T14:58:41.117Z,98189.08
2023-04-13T15:01:17.131Z,98188.35
2023-04-13T15:03:46.946Z,98196.22
2023-04-13T15:06:15.208Z,98199.96
2023-04-13T15:08:43.110Z,98201.33
2023-04-13T15:11:11.010Z,98199.41
2023-04-13T15:13:39.320Z,98203.48
2023-04-13T15:16:07.947Z,98205.50
2023-04-13T15:18:36.014Z,98209.60
2023-04-13T15:21:04.116Z,98211.59
2023-04-13T15:23:33.165Z,98209.68
2023-04-13T15:26:01.242Z,98208.04
2023-04-13T15:28:29.201Z,98212.33
2023-04-13T15:30:57.300Z,98215.69
2023-04-13T15:33:25.374Z,98215.04
2023-04-13T15:35:53.413Z,98215.16
2023-04-13T15:38:21.829Z,98216.79
2023-04-13T15:40:49.821Z,98220.05
2023-04-13T15:43:17.878Z,98219.31
2023-04-13T15:45:48.518Z,98217.15
2023-04-13T15:48:17.821Z,98216.88
2023-04-13T15:50:45.783Z,98216.16
2023-04-13T15:53:13.743Z,98218.54
2023-04-13T15:55:42.507Z,98218.40
2023-04-13T15:58:10.437Z,98218.81
2023-04-13T16:00:38.462Z,98221.46
2023-04-13T16:03:06.623Z,98219.20
2023-04-13T16:05:34.590Z,98215.97
2023-04-13T16:08:03.278Z,98218.34
2023-04-13T16:10:31.354Z,98221.05
2023-04-13T16:12:59.332Z,98218.37
2023-04-13T16:15:27.354Z,98215.83
2023-04-13T16:17:57.050Z,98214.81
2023-04-13T16:20:28.359Z,98218.41
2023-04-13T16:22:59.371Z,98215.38
2023-04-13T16:25:27.267Z,98216.71
2023-04-13T16:27:56.309Z,98215.10
2023-04-13T16:30:24.461Z,98219.31
2023-04-13T16:32:52.572Z,98221.23
2023-04-13T16:35:20.776Z,98220.77
2023-04-13T16:37:48.687Z,98221.33
2023-04-13T16:40:16.998Z,98223.58
2023-04-13T16:42:46.260Z,98229.98
2023-04-13T16:45:15.217Z,98231.00
2023-04-13T16:47:43.951Z,98235.85
2023-04-13T16:50:12.648Z,98242.11
2023-04-13T16:52:41.051Z,98246.89
2023-04-13T16:55:14.033Z,98250.59
2023-04-13T16:57:43.408Z,98253.89
2023-04-13T17:00:12.998Z,98259.52
2023-04-13T17:02:43.100Z,98264.45
2023-04-13T17:05:12.705Z,98270.39
2023-04-13T17:07:43.562Z,98268.64
2023-04-13T17:10:13.655Z,98272.43
2023-04-13T17:12:42.014Z,98272.96
2023-04-13T17:15:10.631Z,98272.96
2023-04-13T17:17:38.844Z,98274.33
2023-04-13T17:20:08.501Z,98274.77
2023-04-13T17:22:37.378Z,98277.29
2023-04-13T17:25:05.840Z,98278.98
2023-04-13T17:27:34.105Z,98283.72
2023-04-13T17:30:02.163Z,98283.05
2023-04-13T17:32:30.128Z,98284.48
2023-04-13T17:34:58.585Z,98281.67
2023-04-13T17:37:29.431Z,98285.77
2023-04-13T17:39:57.823Z,98287.25
2023-04-13T17:42:27.498Z,98286.34
2023-04-13T17:44:56.173Z,98287.02
2023-04-13T17:47:25.063Z,98294.09
2023-04-13T17:49:53.647Z,98296.94
2023-04-13T17:52:21.539Z,98298.30
2023-04-13T17:54:49.694Z,98299.64
2023-04-13T17:57:17.636Z,98301.73
2023-04-13T17:59:46.718Z,98305.37
2023-04-13T18:02:14.779Z,98310.63
2023-04-13T18:04:43.084Z,98312.42
2023-04-13T18:07:11.439Z,98317.06
2023-04-13T18:09:39.443Z,98325.30
2023-04-13T18:12:07.492Z,98328.49
2023-04-13T18:14:35.861Z,98333.44
2023-04-13T18:17:03.793Z,98336.66
2023-04-13T18:19:32.654Z,98335.90
2023-04-13T18:22:01.200Z,98341.59
2023-04-13T18:24:29.387Z,98345.45
2023-04-13T18:26:57.847Z,98341.63
2023-04-13T18:29:26.250Z,98342.42
2023-04-13T18:31:54.488Z,98348.15
2023-04-13T18:34:22.563Z,98346.46
2023-04-13T18:36:50.587Z,98348.32
2023-04-13T18:39:19.223Z,98348.63
2023-04-13T18:41:47.275Z,98346.79
2023-04-13T18:44:15.905Z,98348.00
2023-04-13T18:46:43.913Z,98342.18
2023-04-13T18:49:11.735Z,98339.27
2023-04-13T18:51:39.651Z,98339.26
2023-04-13T18:54:07.925Z,98341.13
2023-04-13T18:56:36.098Z,98345.25
2023-04-13T18:59:04.012Z,98348.13
2023-04-13T19:01:32.538Z,98349.13
2023-04-13T19:04:01.426Z,98346.95
2023-04-13T19:06:30.144Z,98348.86
2023-04-13T19:08:58.305Z,98350.67
2023-04-13T19:11:27.738Z,98354.84
2023-04-13T19:13:56.855Z,98358.27
2023-04-13T19:16:26.357Z,98362.92
2023-04-13T19:18:54.451Z,98366.45
2023-04-13T19:21:23.976Z,98365.91
2023-04-13T19:23:52.914Z,98367.06
2023-04-13T19:26:21.177Z,98370.29
2023-04-13T19:28:49.095Z,98374.17
2023-04-13T19:31:17.257Z,98374.73
2023-04-13T19:33:46.442Z,98377.73
2023-04-13T19:36:15.202Z,98380.45
2023-04-13T19:38:45.133Z,98382.34
2023-04-13T19:41:13.764Z,98380.53
2023-04-13T19:43:42.011Z,98382.27
2023-04-13T19:46:10.243Z,98382.94
2023-04-13T19:48:39.130Z,98385.13
2023-04-13T19:51:08.391Z,98383.26
2023-04-13T19:53:38.247Z,98378.42
2023-04-13T19:56:06.764Z,98380.90
2023-04-13T19:58:35.162Z,98383.21
2023-04-13T20:01:04.914Z,98383.95
2023-04-13T20:03:33.541Z,98382.81
2023-04-13T20:06:02.838Z,98378.94
2023-04-13T20:08:30.911Z,98373.64
2023-04-13T20:10:59.963Z,98368.70
2023-04-13T20:13:28.001Z,98364.23
2023-04-13T20:15:55.967Z,98360.79
2023-04-13T20:18:23.906Z,98358.28
2023-04-13T20:20:52.491Z,98356.66
2023-04-13T20:23:20.338Z,98353.47
2023-04-13T20:25:48.240Z,98355.41
2023-04-13T20:28:17.906Z,98357.55
2023-04-13T20:30:45.793Z,98359.66
2023-04-13T20:33:13.989Z,98358.74
2023-04-13T20:35:42.074Z,98357.35
2023-04-13T20:38:10.167Z,98355.74
2023-04-13T20:40:38.186Z,98351.42
2023-04-13T20:43:06.380Z,98347.73
2023-04-13T20:45:36.245Z,98346.85
2023-04-13T20:50:35.729Z,98333.59
2023-04-13T20:53:04.865Z,98332.73
2023-04-13T20:55:33.326Z,98327.30
2023-04-13T20:58:01.726Z,98323.55
2023-04-13T21:00:29.997Z,98318.29
2023-04-13T21:02:57.954Z,98314.00
2023-04-13T21:05:26.051Z,98310.70
2023-04-13T21:07:55.301Z,98308.83
2023-04-13T21:10:24.985Z,98307.88
2023-04-13T21:12:52.845Z,98302.35
2023-04-13T21:15:20.904Z,98300.33
2023-04-13T21:17:49.048Z,98295.14
2023-04-13T21:20:16.980Z,98289.59
2023-04-13T21:22:44.848Z,98290.62
2023-04-13T21:25:12.709Z,98294.33
2023-04-13T21:27:40.769Z,98294.05
2023-04-13T21:30:09.054Z,98291.46
2023-04-13T21:32:37.094Z,98294.73
2023-04-13T21:35:05.476Z,98298.05
2023-04-13T21:37:33.514Z,98302.56
2023-04-13T21:40:01.365Z,98305.13
2023-04-13T21:42:29.259Z,98301.29
2023-04-13T21:44:57.305Z,98300.02
2023-04-13T21:47:25.266Z,98303.13
2023-04-13T21:49:53.210Z,98297.88
2023-04-13T21:52:21.046Z,98298.48
2023-04-13T21:54:51.395Z,98294.68
2023-04-13T21:57:19.598Z,98295.27
2023-04-13T21:59:47.479Z,98302.26
2023-04-13T22:02:15.939Z,98298.20
2023-04-13T22:04:43.917Z,98294.51
2023-04-13T22:07:12.180Z,98291.50
2023-04-13T22:09:40.493Z,98291.79
2023-04-13T22:12:10.769Z,98296.77
2023-04-13T22:14:38.629Z,98298.89
2023-04-13T22:17:06.735Z,98298.27
2023-04-13T22:19:34.604Z,98296.16
2023-04-13T22:22:02.506Z,98295.24
2023-04-13T22:24:30.374Z,98298.61
2023-04-13T22:26:58.414Z,98294.98
2023-04-13T22:29:26.340Z,98288.70
2023-04-13T22:31:54.704Z,98282.89
2023-04-13T22:34:22.652Z,98276.31
2023-04-13T22:36:52.376Z,98276.31
2023-04-13T22:39:20.611Z,98280.70
2023-04-13T22:41:48.430Z,98288.10
2023-04-13T22:44:16.275Z,98284.38
2023-04-13T22:46:44.192Z,98276.35
2023-04-13T22:49:12.028Z,98272.80
2023-04-13T22:51:40.619Z,98268.29
2023-04-13T22:54:08.449Z,98259.99
2023-04-13T22:56:36.333Z,98257.27
2023-04-13T22:59:04.219Z,98260.33
2023-04-13T23:01:32.172Z,98256.23
2023-04-13T23:04:00.250Z,98253.09
2023-04-13T23:06:28.475Z,98256.52
2023-04-13T23:08:59.032Z,98255.33
2023-04-13T23:11:27.400Z,98253.39
2023-04-13T23:13:55.377Z,98250.66
2023-04-13T23:16:23.397Z,98256.67
2023-04-13T23:18:51.263Z,98261.02
2023-04-13T23:21:19.086Z,98256.42
2023-04-13T23:23:46.959Z,98250.56
2023-04-13T23:26:14.842Z,98246.21
2023-04-13T23:28:42.748Z,98242.63
2023-04-13T23:31:10.904Z,98239.79
2023-04-13T23:33:39.006Z,98242.36
2023-04-13T23:36:07.329Z,98246.85
2023-04-13T23:38:35.697Z,98251.70
2023-04-13T23:41:03.630Z,98251.40
2023-04-13T23:43:32.513Z,98250.88
2023-04-13T23:46:00.561Z,98253.17
2023-04-13T23:48:28.488Z,98253.20
2023-04-13T23:50:57.548Z,98251.52
2023-04-13T23:53:25.404Z,98249.05
2023-04-13T23:55:53.281Z,98245.92
2023-04-13T23:58:21.157Z,98243.40
